| time (UTC) | temp F | wind direction | speed knots | gust knots | rain 1hr in | rain 24hr in | rain mn in | humidity % | barometer mb |
| 20260503212006 | 53 | 80 | 0.9 | 1.7 | 0.00 | 0.00 | 0.00 | 87 | 1020.5 |
| 20260503211517 | 54 | 82 | 0.9 | 1.7 | 0.00 | 0.00 | 0.00 | 87 | 1020.5 |
| 20260503211010 | 54 | 81 | 0.9 | 1.7 | 0.00 | 0.00 | 0.00 | 86 | 1020.5 |
| 20260503210507 | 54 | 81 | 0.9 | 1.7 | 0.00 | 0.00 | 0.00 | 86 | 1020.5 |
| 20260503210016 | 54 | 80 | 0.9 | 0.9 | 0.00 | 0.00 | 0.00 | 86 | 1020.5 |
| 20260503205508 | 54 | 80 | 0.0 | 1.7 | 0.00 | 0.00 | 0.00 | 86 | 1020.5 |
| 20260503205007 | 55 | 80 | 0.9 | 1.7 | 0.00 | 0.00 | 0.00 | 85 | 1020.4 |
| 20260503204514 | 55 | 95 | 0.9 | 1.7 | 0.00 | 0.00 | 0.00 | 85 | 1020.4 |
| 20260503204010 | 55 | 120 | 0.0 | 0.9 | 0.00 | 0.00 | 0.00 | 85 | 1020.4 |
| 20260503203512 | 56 | 120 | 0.0 | 0.9 | 0.00 | 0.00 | 0.00 | 85 | 1020.5 |
| 20260503203017 | 56 | 120 | 0.0 | 0.9 | 0.00 | 0.00 | 0.00 | 84 | 1020.5 |
| 20260503202509 | 56 | 120 | 0.0 | 0.9 | 0.00 | 0.00 | 0.00 | 84 | 1020.5 |
| 20260503202010 | 57 | 120 | 0.0 | 0.9 | 0.00 | 0.00 | 0.00 | 84 | 1020.4 |
| 20260503201518 | 57 | 225 | 0.0 | 0.9 | 0.00 | 0.00 | 0.00 | 83 | 1020.4 |
| 20260503201007 | 57 | 226 | 0.0 | 0.0 | 0.00 | 0.00 | 0.00 | 83 | 1020.4 |
| 20260503200512 | 58 | 226 | 0.0 | 0.0 | 0.00 | 0.00 | 0.00 | 82 | 1020.3 |
| 20260503200017 | 58 | 227 | 0.0 | 0.0 | 0.00 | 0.00 | 0.00 | 81 | 1020.3 |
| 20260503195508 | 59 | 227 | 0.0 | 0.9 | 0.00 | 0.00 | 0.00 | 81 | 1020.3 |
| 20260503195013 | 59 | 227 | 0.0 | 0.9 | 0.00 | 0.00 | 0.00 | 81 | 1020.3 |
| 20260503194516 | 59 | 243 | 0.0 | 0.9 | 0.00 | 0.00 | 0.00 | 82 | 1020.2 |
| 20260503194014 | 59 | 246 | 0.0 | 0.9 | 0.00 | 0.00 | 0.00 | 81 | 1020.3 |
| 20260503193507 | 59 | 245 | 0.0 | 1.7 | 0.00 | 0.00 | 0.00 | 81 | 1020.3 |
| 20260503193016 | 60 | 206 | 0.0 | 1.7 | 0.00 | 0.00 | 0.00 | 81 | 1020.2 |
| 20260503192508 | 60 | 255 | 0.0 | 1.7 | 0.00 | 0.00 | 0.00 | 81 | 1020.2 |
| 20260503192011 | 60 | 237 | 0.0 | 1.7 | 0.00 | 0.00 | 0.00 | 81 | 1020.2 |
| 20260503191520 | 60 | 245 | 0.0 | 1.7 | 0.00 | 0.00 | 0.00 | 81 | 1020.2 |
| 20260503191007 | 60 | 250 | 0.0 | 2.6 | 0.00 | 0.00 | 0.00 | 80 | 1020.0 |
| 20260503190507 | 60 | 254 | 0.9 | 2.6 | 0.00 | 0.00 | 0.00 | 80 | 1020.0 |
| 20260503190018 | 60 | 233 | 0.9 | 1.7 | 0.00 | 0.00 | 0.00 | 80 | 1020.1 |
| 20260503185508 | 60 | 278 | 0.9 | 1.7 | 0.00 | 0.00 | 0.00 | 80 | 1020.0 |
| 20260503185007 | 60 | 260 | 0.9 | 3.5 | 0.00 | 0.00 | 0.00 | 79 | 1019.9 |
| 20260503184518 | 60 | 221 | 0.9 | 3.5 | 0.00 | 0.00 | 0.00 | 79 | 1019.9 |
| 20260503184011 | 60 | 255 | 0.9 | 3.5 | 0.00 | 0.00 | 0.00 | 79 | 1019.9 |
| 20260503183507 | 60 | 240 | 0.9 | 2.6 | 0.00 | 0.00 | 0.00 | 79 | 1019.8 |
| 20260503183019 | 61 | 242 | 1.7 | 2.6 | 0.00 | 0.00 | 0.00 | 78 | 1019.7 |
| 20260503182509 | 61 | 240 | 0.9 | 3.5 | 0.00 | 0.00 | 0.00 | 78 | 1019.7 |
| 20260503182014 | 61 | 242 | 1.7 | 3.5 | 0.00 | 0.00 | 0.00 | 77 | 1019.7 |
| 20260503181518 | 61 | 233 | 0.9 | 2.6 | 0.00 | 0.00 | 0.00 | 77 | 1019.6 |
| 20260503181006 | 62 | 245 | 0.9 | 2.6 | 0.00 | 0.00 | 0.00 | 77 | 1019.6 |
| 20260503180509 | 62 | 240 | 0.9 | 3.5 | 0.00 | 0.00 | 0.00 | 76 | 1019.5 |
| 20260503180018 | 62 | 250 | 0.9 | 3.5 | 0.00 | 0.00 | 0.00 | 76 | 1019.6 |
| 20260503175507 | 63 | 240 | 1.7 | 6.1 | 0.00 | 0.00 | 0.00 | 75 | 1019.5 |
| 20260503175008 | 63 | 250 | 1.7 | 6.1 | 0.00 | 0.00 | 0.00 | 75 | 1019.5 |
| 20260503174520 | 63 | 262 | 3.5 | 6.1 | 0.00 | 0.00 | 0.00 | 74 | 1019.6 |
| 20260503174007 | 63 | 259 | 2.6 | 6.1 | 0.00 | 0.00 | 0.00 | 74 | 1019.6 |
| 20260503173507 | 64 | 252 | 1.7 | 7.8 | 0.00 | 0.00 | 0.00 | 74 | 1019.6 |
| 20260503173022 | 64 | 239 | 2.6 | 7.8 | 0.00 | 0.00 | 0.00 | 73 | 1019.6 |
| 20260503172510 | 64 | 276 | 1.7 | 5.2 | 0.00 | 0.00 | 0.00 | 72 | 1019.7 |
| 20260503172010 | 64 | 288 | 2.6 | 5.2 | 0.00 | 0.00 | 0.00 | 72 | 1019.6 |
| 20260503171520 | 65 | 276 | 1.7 | 7.0 | 0.00 | 0.00 | 0.00 | 72 | 1019.6 |
| 20260503171008 | 65 | 259 | 3.5 | 9.6 | 0.00 | 0.00 | 0.00 | 71 | 1019.6 |
| 20260503170510 | 65 | 276 | 3.5 | 9.6 | 0.00 | 0.00 | 0.00 | 71 | 1019.6 |
| 20260503151006 | 68 | 230 | 1.7 | 6.1 | 0.00 | 0.00 | 0.00 | 66 | 1019.8 |
| 20260503150508 | 67 | 257 | 3.5 | 7.8 | 0.00 | 0.00 | 0.00 | 67 | 1019.9 |
| 20260503131007 | 67 | 238 | 5.2 | 11.3 | 0.00 | 0.00 | 0.00 | 66 | 1021.5 |
| 20260503130505 | 67 | 217 | 6.1 | 11.3 | 0.00 | 0.00 | 0.00 | 66 | 1021.6 |
| 20260503110504 | 66 | 236 | 4.3 | 10.4 | 0.00 | 0.00 | 0.00 | 69 | 1021.8 |
| 20260503090509 | 67 | 245 | 2.6 | 6.1 | 0.00 | 0.00 | 0.00 | 55 | 1022.0 |
| 20260503081520 | 66 | 240 | 1.7 | 5.2 | 0.00 | 0.00 | 0.00 | 67 | 1022.0 |
| 20260503081012 | 65 | 269 | 2.6 | 5.2 | 0.00 | 0.00 | 0.00 | 67 | 1021.9 |
| 20260503080508 | 65 | 221 | 1.7 | 3.5 | 0.00 | 0.00 | 0.00 | 67 | 1021.9 |
| 20260503072507 | 65 | 255 | 0.9 | 2.6 | 0.00 | 0.00 | 0.00 | 69 | 1022.0 |
| 20260503072009 | 65 | 115 | 0.0 | 0.9 | 0.00 | 0.00 | 0.00 | 70 | 1022.1 |
| 20260503071518 | 64 | 127 | 0.9 | 2.6 | 0.00 | 0.00 | 0.00 | 71 | 1022.1 |
| 20260503071008 | 62 | 16 | 0.9 | 3.5 | 0.00 | 0.00 | 0.00 | 72 | 1022.1 |
| 20260503070508 | 62 | 38 | 1.7 | 3.5 | 0.00 | 0.00 | 0.00 | 71 | 1022.1 |
| 20260503055009 | 54 | 42 | 1.7 | 4.3 | 0.00 | 0.00 | 0.00 | 86 | 1022.2 |
| 20260503054521 | 53 | 69 | 1.7 | 4.3 | 0.00 | 0.00 | 0.00 | 87 | 1022.1 |
| 20260503054009 | 52 | 38 | 2.6 | 4.3 | 0.00 | 0.00 | 0.00 | 87 | 1022.1 |
| 20260503053507 | 52 | 53 | 2.6 | 4.3 | 0.00 | 0.00 | 0.00 | 87 | 1022.0 |
| 20260503053024 | 51 | 53 | 2.6 | 4.3 | 0.00 | 0.00 | 0.00 | 87 | 1022.0 |
| 20260503052504 | 51 | 49 | 0.9 | 2.6 | 0.00 | 0.00 | 0.00 | 87 | 1021.9 |
| 20260503052007 | 51 | 35 | 1.7 | 2.6 | 0.00 | 0.00 | 0.00 | 88 | 1021.9 |
| 20260503051510 | 50 | 41 | 1.7 | 2.6 | 0.00 | 0.00 | 0.00 | 88 | 1021.9 |
| 20260503051008 | 50 | 54 | 1.7 | 3.5 | 0.00 | 0.00 | 0.00 | 89 | 1021.8 |
| 20260503050507 | 49 | 52 | 1.7 | 3.5 | 0.00 | 0.00 | 0.00 | 89 | 1021.7 |
| 20260503050023 | 49 | 51 | 1.7 | 2.6 | 0.00 | 0.00 | 0.00 | 89 | 1021.8 |
| 20260503045509 | 48 | 58 | 0.9 | 2.6 | 0.00 | 0.00 | 0.00 | 90 | 1021.8 |
| 20260503045009 | 48 | 46 | 0.9 | 2.6 | 0.00 | 0.00 | 0.00 | 90 | 1021.8 |
| 20260503044519 | 48 | 50 | 1.7 | 2.6 | 0.00 | 0.00 | 0.00 | 90 | 1021.8 |
| 20260503044008 | 47 | 53 | 0.9 | 1.7 | 0.00 | 0.00 | 0.00 | 90 | 1021.8 |
| 20260503043507 | 47 | 72 | 0.0 | 3.5 | 0.00 | 0.00 | 0.00 | 91 | 1021.7 |
| 20260503043027 | 47 | 75 | 0.9 | 3.5 | 0.00 | 0.00 | 0.00 | 91 | 1021.7 |
| 20260503042509 | 47 | 26 | 1.7 | 3.5 | 0.00 | 0.00 | 0.00 | 90 | 1021.7 |
| 20260503042011 | 47 | 77 | 0.9 | 3.5 | 0.00 | 0.00 | 0.00 | 90 | 1021.7 |
| 20260503041532 | 47 | 44 | 1.7 | 3.5 | 0.00 | 0.00 | 0.00 | 91 | 1021.7 |
| 20260503041002 | 47 | 44 | 1.7 | 3.5 | 0.00 | 0.00 | 0.00 | 91 | 1021.6 |
| 20260503040507 | 47 | 56 | 0.9 | 3.5 | 0.00 | 0.00 | 0.00 | 91 | 1021.6 |
| 20260503040011 | 46 | 39 | 0.9 | 3.5 | 0.00 | 0.00 | 0.00 | 91 | 1021.6 |
| 20260503035507 | 46 | 42 | 1.7 | 3.5 | 0.00 | 0.00 | 0.00 | 91 | 1021.6 |
| 20260503035005 | 46 | 22 | 1.7 | 3.5 | 0.00 | 0.00 | 0.00 | 90 | 1021.5 |
| 20260503034516 | 46 | 51 | 1.7 | 2.6 | 0.00 | 0.00 | 0.00 | 90 | 1021.5 |
| 20260503034007 | 46 | 47 | 1.7 | 3.5 | 0.00 | 0.00 | 0.00 | 90 | 1021.5 |
| 20260503033507 | 46 | 40 | 1.7 | 3.5 | 0.00 | 0.00 | 0.00 | 90 | 1021.5 |
| 20260503033019 | 46 | 44 | 1.7 | 2.6 | 0.00 | 0.00 | 0.00 | 90 | 1021.5 |
| 20260503032509 | 47 | 46 | 1.7 | 3.5 | 0.00 | 0.00 | 0.00 | 90 | 1021.5 |
| 20260503032010 | 47 | 44 | 1.7 | 3.5 | 0.00 | 0.00 | 0.00 | 90 | 1021.5 |
| 20260503031523 | 47 | 49 | 0.9 | 2.6 | 0.00 | 0.00 | 0.00 | 90 | 1021.5 |
| 20260503031009 | 47 | 68 | 0.9 | 3.5 | 0.00 | 0.00 | 0.00 | 90 | 1021.5 |
| 20260503030508 | 47 | 60 | 0.9 | 3.5 | 0.00 | 0.00 | 0.00 | 90 | 1021.5 |
| 20260503030025 | 47 | 37 | 2.6 | 2.6 | 0.00 | 0.00 | 0.00 | 90 | 1021.5 |
| 20260503025511 | 47 | 41 | 1.7 | 2.6 | 0.00 | 0.00 | 0.00 | 90 | 1021.6 |
| 20260503025006 | 47 | 64 | 1.7 | 2.6 | 0.00 | 0.00 | 0.00 | 89 | 1021.5 |
| 20260503024514 | 47 | 63 | 1.7 | 2.6 | 0.00 | 0.00 | 0.00 | 89 | 1021.7 |
| 20260503024006 | 47 | 37 | 1.7 | 2.6 | 0.00 | 0.00 | 0.00 | 89 | 1021.6 |
| 20260503023510 | 47 | 53 | 0.9 | 1.7 | 0.00 | 0.00 | 0.00 | 89 | 1021.6 |
| 20260503023018 | 47 | 43 | 0.9 | 1.7 | 0.00 | 0.00 | 0.00 | 89 | 1021.7 |
| 20260503022507 | 47 | 47 | 0.9 | 1.7 | 0.00 | 0.00 | 0.00 | 89 | 1021.7 |
| 20260503022008 | 47 | 39 | 0.9 | 1.7 | 0.00 | 0.00 | 0.00 | 89 | 1021.7 |
| 20260503021524 | 47 | 75 | 0.9 | 4.3 | 0.00 | 0.00 | 0.00 | 89 | 1021.8 |
| 20260503021007 | 47 | 68 | 1.7 | 4.3 | 0.00 | 0.00 | 0.00 | 89 | 1021.6 |
| 20260503020507 | 48 | 45 | 2.6 | 4.3 | 0.00 | 0.00 | 0.00 | 89 | 1021.6 |
| 20260503020023 | 48 | 86 | 0.9 | 2.6 | 0.00 | 0.00 | 0.00 | 89 | 1021.6 |
| 20260503015509 | 48 | 46 | 1.7 | 1.7 | 0.00 | 0.00 | 0.00 | 89 | 1021.8 |
| 20260503015009 | 48 | 47 | 0.9 | 1.7 | 0.00 | 0.00 | 0.00 | 89 | 1021.8 |
| 20260503014526 | 48 | 47 | 0.9 | 1.7 | 0.00 | 0.00 | 0.00 | 89 | 1021.9 |
| 20260503014011 | 48 | 39 | 0.9 | 2.6 | 0.00 | 0.00 | 0.00 | 89 | 1021.9 |
| 20260503013504 | 48 | 39 | 0.9 | 2.6 | 0.00 | 0.00 | 0.00 | 89 | 1021.9 |
| 20260503013014 | 48 | 79 | 0.9 | 2.6 | 0.00 | 0.00 | 0.00 | 89 | 1021.9 |
| 20260503012506 | 48 | 96 | 0.9 | 3.5 | 0.00 | 0.00 | 0.00 | 89 | 1021.8 |
| 20260503012009 | 48 | 49 | 1.7 | 3.5 | 0.00 | 0.00 | 0.00 | 89 | 1021.8 |
| 20260503011518 | 48 | 82 | 0.9 | 3.5 | 0.00 | 0.00 | 0.00 | 88 | 1021.9 |
| 20260503011008 | 48 | 51 | 1.7 | 3.5 | 0.00 | 0.00 | 0.00 | 88 | 1022.0 |
| 20260503010507 | 48 | 56 | 0.9 | 2.6 | 0.00 | 0.00 | 0.00 | 88 | 1021.9 |
| 20260503010027 | 48 | 68 | 0.9 | 3.5 | 0.00 | 0.00 | 0.00 | 88 | 1022.0 |
| 20260503005511 | 48 | 51 | 1.7 | 3.5 | 0.00 | 0.00 | 0.00 | 88 | 1022.0 |
| 20260503005010 | 48 | 46 | 1.7 | 3.5 | 0.00 | 0.00 | 0.00 | 88 | 1022.0 |
| 20260503004526 | 48 | 44 | 1.7 | 3.5 | 0.00 | 0.00 | 0.00 | 87 | 1022.0 |
| 20260503004016 | 48 | 49 | 1.7 | 2.6 | 0.00 | 0.00 | 0.00 | 87 | 1022.0 |
| 20260503003511 | 48 | 46 | 1.7 | 2.6 | 0.00 | 0.00 | 0.00 | 87 | 1022.1 |
| 20260503003026 | 48 | 49 | 1.7 | 2.6 | 0.00 | 0.00 | 0.00 | 87 | 1022.2 |
| 20260503002509 | 48 | 45 | 1.7 | 3.5 | 0.00 | 0.00 | 0.00 | 87 | 1022.2 |
| 20260503002007 | 47 | 49 | 0.9 | 3.5 | 0.00 | 0.00 | 0.00 | 86 | 1022.2 |
| 20260503001516 | 48 | 34 | 1.7 | 2.6 | 0.00 | 0.00 | 0.00 | 86 | 1022.3 |
| 20260503001007 | 48 | 41 | 0.9 | 2.6 | 0.00 | 0.00 | 0.00 | 86 | 1022.3 |
| 20260503000507 | 48 | 43 | 1.7 | 3.5 | 0.00 | 0.00 | 0.00 | 86 | 1022.3 |
| 20260503000022 | 48 | 41 | 1.7 | 3.5 | 0.00 | 0.00 | 0.00 | 85 | 1022.2 |
| 20260502235508 | 48 | 51 | 1.7 | 2.6 | 0.00 | 0.00 | 0.00 | 85 | 1022.3 |
| 20260502235010 | 48 | 44 | 1.7 | 2.6 | 0.00 | 0.00 | 0.00 | 85 | 1022.3 |
| 20260502234529 | 48 | 46 | 1.7 | 2.6 | 0.00 | 0.00 | 0.00 | 84 | 1022.4 |
| 20260502234012 | 48 | 67 | 0.9 | 2.6 | 0.00 | 0.00 | 0.00 | 84 | 1022.4 |
| 20260502233511 | 48 | 56 | 1.7 | 1.7 | 0.00 | 0.00 | 0.00 | 83 | 1022.4 |
| 20260502233027 | 49 | 74 | 0.9 | 2.6 | 0.00 | 0.00 | 0.00 | 83 | 1022.4 |
| 20260502232515 | 49 | 77 | 0.9 | 2.6 | 0.00 | 0.00 | 0.00 | 83 | 1022.5 |
| 20260502232007 | 49 | 51 | 1.7 | 2.6 | 0.00 | 0.00 | 0.00 | 82 | 1022.5 |
| 20260502231527 | 49 | 56 | 0.9 | 2.6 | 0.00 | 0.00 | 0.00 | 82 | 1022.6 |
| 20260502231012 | 49 | 62 | 0.9 | 2.6 | 0.00 | 0.00 | 0.00 | 82 | 1022.6 |
| 20260502230507 | 49 | 66 | 0.9 | 2.6 | 0.00 | 0.00 | 0.00 | 82 | 1022.7 |
| 20260502230024 | 49 | 37 | 0.9 | 2.6 | 0.00 | 0.00 | 0.00 | 81 | 1022.7 |
| 20260502225509 | 49 | 61 | 0.9 | 2.6 | 0.00 | 0.00 | 0.00 | 81 | 1022.6 |
| 20260502225012 | 50 | 56 | 0.9 | 2.6 | 0.00 | 0.00 | 0.00 | 81 | 1022.6 |
| 20260502224523 | 50 | 46 | 0.9 | 2.6 | 0.00 | 0.00 | 0.00 | 81 | 1022.7 |
| 20260502224006 | 50 | 31 | 1.7 | 2.6 | 0.00 | 0.00 | 0.00 | 81 | 1022.8 |
| 20260502223508 | 50 | 51 | 0.9 | 1.7 | 0.00 | 0.00 | 0.00 | 81 | 1022.8 |
| 20260502223022 | 50 | 75 | 0.9 | 2.6 | 0.00 | 0.00 | 0.00 | 81 | 1022.7 |
| 20260502222508 | 51 | 75 | 1.7 | 2.6 | 0.00 | 0.00 | 0.00 | 80 | 1022.7 |
| 20260502222009 | 51 | 78 | 0.9 | 1.7 | 0.00 | 0.00 | 0.00 | 80 | 1022.7 |
| 20260502221525 | 51 | 83 | 0.9 | 1.7 | 0.00 | 0.00 | 0.00 | 80 | 1022.7 |
| 20260502221009 | 51 | 83 | 0.9 | 1.7 | 0.00 | 0.00 | 0.00 | 79 | 1022.7 |
| 20260502220511 | 52 | 83 | 0.9 | 1.7 | 0.00 | 0.00 | 0.00 | 79 | 1022.6 |
| 20260502220029 | 52 | 83 | 0.9 | 0.9 | 0.00 | 0.00 | 0.00 | 78 | 1022.6 |
| 20260502215511 | 52 | 83 | 0.9 | 1.7 | 0.00 | 0.00 | 0.00 | 76 | 1022.6 |
| 20260502215012 | 52 | 83 | 0.9 | 1.7 | 0.00 | 0.00 | 0.00 | 75 | 1022.6 |
| 20260502214519 | 52 | 84 | 0.9 | 1.7 | 0.00 | 0.00 | 0.00 | 74 | 1022.6 |
| 20260502214007 | 53 | 82 | 0.9 | 1.7 | 0.00 | 0.00 | 0.00 | 73 | 1022.6 |
| 20260502213508 | 53 | 82 | 0.0 | 1.7 | 0.00 | 0.00 | 0.00 | 72 | 1022.6 |
| 20260502213021 | 54 | 82 | 0.9 | 1.7 | 0.00 | 0.00 | 0.00 | 71 | 1022.5 |
| 20260502212514 | 54 | 82 | 0.9 | 0.9 | 0.00 | 0.00 | 0.00 | 71 | 1022.5 |